sensor_id;sensor_type;location;lat;lon;timestamp;temperature;humidity
24162;DHT22;12318;51.262;7.066;2023-07-16T00:01:44;18.20;99.90
24162;DHT22;12318;51.262;7.066;2023-07-16T00:04:10;18.10;99.90
24162;DHT22;12318;51.262;7.066;2023-07-16T00:06:36;18.20;99.90
24162;DHT22;12318;51.262;7.066;2023-07-16T00:09:02;18.10;99.90
24162;DHT22;12318;51.262;7.066;2023-07-16T00:11:28;18.10;99.90
24162;DHT22;12318;51.262;7.066;2023-07-16T00:13:54;18.10;99.90
24162;DHT22;12318;51.262;7.066;2023-07-16T00:16:19;18.20;99.90
24162;DHT22;12318;51.262;7.066;2023-07-16T00:18:45;18.20;99.90
24162;DHT22;12318;51.262;7.066;2023-07-16T00:21:11;18.20;99.90
24162;DHT22;12318;51.262;7.066;2023-07-16T00:23:37;18.20;99.90
24162;DHT22;12318;51.262;7.066;2023-07-16T00:26:03;18.20;99.90
24162;DHT22;12318;51.262;7.066;2023-07-16T00:28:29;18.20;99.90
24162;DHT22;12318;51.262;7.066;2023-07-16T00:30:55;18.20;99.90
24162;DHT22;12318;51.262;7.066;2023-07-16T00:33:21;18.20;99.90
24162;DHT22;12318;51.262;7.066;2023-07-16T00:35:48;18.30;99.90
24162;DHT22;12318;51.262;7.066;2023-07-16T00:38:18;18.20;99.90
24162;DHT22;12318;51.262;7.066;2023-07-16T00:40:44;18.20;99.90
24162;DHT22;12318;51.262;7.066;2023-07-16T00:43:10;18.20;99.90
24162;DHT22;12318;51.262;7.066;2023-07-16T00:45:37;18.10;99.90
24162;DHT22;12318;51.262;7.066;2023-07-16T00:48:06;18.20;99.90
24162;DHT22;12318;51.262;7.066;2023-07-16T00:50:33;18.20;99.90
24162;DHT22;12318;51.262;7.066;2023-07-16T00:53:01;18.10;99.90
24162;DHT22;12318;51.262;7.066;2023-07-16T00:55:28;18.10;99.90
24162;DHT22;12318;51.262;7.066;2023-07-16T00:57:56;18.00;99.90
24162;DHT22;12318;51.262;7.066;2023-07-16T01:00:26;17.90;99.90
24162;DHT22;12318;51.262;7.066;2023-07-16T01:02:51;17.90;99.90
24162;DHT22;12318;51.262;7.066;2023-07-16T01:05:17;17.90;99.90
24162;DHT22;12318;51.262;7.066;2023-07-16T01:07:53;17.80;99.90
24162;DHT22;12318;51.262;7.066;2023-07-16T01:10:22;17.70;99.90
24162;DHT22;12318;51.262;7.066;2023-07-16T01:12:50;17.70;99.90
24162;DHT22;12318;51.262;7.066;2023-07-16T01:15:17;17.70;99.90
24162;DHT22;12318;51.262;7.066;2023-07-16T01:17:43;17.60;99.90
24162;DHT22;12318;51.262;7.066;2023-07-16T01:20:09;17.70;99.90
24162;DHT22;12318;51.262;7.066;2023-07-16T01:30:44;17.60;99.90
24162;DHT22;12318;51.262;7.066;2023-07-16T01:33:12;17.60;99.90
24162;DHT22;12318;51.262;7.066;2023-07-16T01:35:39;17.60;99.90
24162;DHT22;12318;51.262;7.066;2023-07-16T01:38:08;17.60;99.90
24162;DHT22;12318;51.262;7.066;2023-07-16T01:40:34;17.70;99.90
24162;DHT22;12318;51.262;7.066;2023-07-16T01:43:00;17.70;99.90
24162;DHT22;12318;51.262;7.066;2023-07-16T01:45:25;17.70;99.90
24162;DHT22;12318;51.262;7.066;2023-07-16T01:48:20;17.70;99.90
24162;DHT22;12318;51.262;7.066;2023-07-16T01:50:48;17.70;99.90
24162;DHT22;12318;51.262;7.066;2023-07-16T01:53:14;17.70;99.90
24162;DHT22;12318;51.262;7.066;2023-07-16T01:55:39;17.80;99.90
24162;DHT22;12318;51.262;7.066;2023-07-16T01:58:05;17.70;99.90
24162;DHT22;12318;51.262;7.066;2023-07-16T02:00:31;17.70;99.90
24162;DHT22;12318;51.262;7.066;2023-07-16T02:02:57;17.70;99.90
24162;DHT22;12318;51.262;7.066;2023-07-16T02:05:23;17.70;99.90
24162;DHT22;12318;51.262;7.066;2023-07-16T02:07:49;17.80;99.90
24162;DHT22;12318;51.262;7.066;2023-07-16T02:10:14;17.80;99.90
24162;DHT22;12318;51.262;7.066;2023-07-16T02:12:40;17.80;99.90
24162;DHT22;12318;51.262;7.066;2023-07-16T02:15:09;17.70;99.90
24162;DHT22;12318;51.262;7.066;2023-07-16T02:17:35;17.70;99.90
24162;DHT22;12318;51.262;7.066;2023-07-16T02:20:01;17.70;99.90
24162;DHT22;12318;51.262;7.066;2023-07-16T02:22:27;17.80;99.90
24162;DHT22;12318;51.262;7.066;2023-07-16T02:24:53;17.70;99.90
24162;DHT22;12318;51.262;7.066;2023-07-16T02:27:19;17.70;99.90
24162;DHT22;12318;51.262;7.066;2023-07-16T02:29:44;17.70;99.90
24162;DHT22;12318;51.262;7.066;2023-07-16T02:32:10;17.70;99.90
24162;DHT22;12318;51.262;7.066;2023-07-16T02:34:36;17.70;99.90
24162;DHT22;12318;51.262;7.066;2023-07-16T02:37:02;17.70;99.90
24162;DHT22;12318;51.262;7.066;2023-07-16T02:39:28;17.70;99.90
24162;DHT22;12318;51.262;7.066;2023-07-16T02:41:53;17.70;99.90
24162;DHT22;12318;51.262;7.066;2023-07-16T02:44:19;17.60;99.90
24162;DHT22;12318;51.262;7.066;2023-07-16T02:46:45;17.60;99.90
24162;DHT22;12318;51.262;7.066;2023-07-16T02:49:11;17.50;99.90
24162;DHT22;12318;51.262;7.066;2023-07-16T02:51:36;17.50;99.90
24162;DHT22;12318;51.262;7.066;2023-07-16T02:54:02;17.50;99.90
24162;DHT22;12318;51.262;7.066;2023-07-16T02:56:28;17.40;99.90
24162;DHT22;12318;51.262;7.066;2023-07-16T02:58:54;17.30;99.90
24162;DHT22;12318;51.262;7.066;2023-07-16T03:01:19;17.20;99.90
24162;DHT22;12318;51.262;7.066;2023-07-16T03:03:45;17.20;99.90
24162;DHT22;12318;51.262;7.066;2023-07-16T03:06:11;17.10;99.90
24162;DHT22;12318;51.262;7.066;2023-07-16T03:08:37;17.10;99.90
24162;DHT22;12318;51.262;7.066;2023-07-16T03:11:03;16.90;99.90
24162;DHT22;12318;51.262;7.066;2023-07-16T03:13:28;16.90;99.90
24162;DHT22;12318;51.262;7.066;2023-07-16T03:15:54;16.80;99.90
24162;DHT22;12318;51.262;7.066;2023-07-16T03:18:20;16.80;99.90
24162;DHT22;12318;51.262;7.066;2023-07-16T03:20:46;16.80;99.90
24162;DHT22;12318;51.262;7.066;2023-07-16T03:23:12;16.80;99.90
24162;DHT22;12318;51.262;7.066;2023-07-16T03:25:38;16.80;99.90
24162;DHT22;12318;51.262;7.066;2023-07-16T03:28:04;16.80;99.90
24162;DHT22;12318;51.262;7.066;2023-07-16T03:30:32;16.70;99.90
24162;DHT22;12318;51.262;7.066;2023-07-16T03:32:58;16.70;99.90
24162;DHT22;12318;51.262;7.066;2023-07-16T03:35:25;16.70;99.90
24162;DHT22;12318;51.262;7.066;2023-07-16T03:37:51;16.60;99.90
24162;DHT22;12318;51.262;7.066;2023-07-16T03:40:21;16.60;99.90
24162;DHT22;12318;51.262;7.066;2023-07-16T03:42:47;16.60;99.90
24162;DHT22;12318;51.262;7.066;2023-07-16T03:45:13;16.60;99.90
24162;DHT22;12318;51.262;7.066;2023-07-16T03:47:39;16.50;99.90
24162;DHT22;12318;51.262;7.066;2023-07-16T03:50:05;16.50;99.90
24162;DHT22;12318;51.262;7.066;2023-07-16T03:52:31;16.40;99.90
24162;DHT22;12318;51.262;7.066;2023-07-16T03:54:57;16.40;99.90
24162;DHT22;12318;51.262;7.066;2023-07-16T03:57:23;16.40;99.90
24162;DHT22;12318;51.262;7.066;2023-07-16T03:59:48;16.40;99.90
24162;DHT22;12318;51.262;7.066;2023-07-16T04:02:14;16.40;99.90
24162;DHT22;12318;51.262;7.066;2023-07-16T04:04:40;16.30;99.90
24162;DHT22;12318;51.262;7.066;2023-07-16T04:07:05;16.30;99.90
24162;DHT22;12318;51.262;7.066;2023-07-16T04:09:31;16.30;99.90
24162;DHT22;12318;51.262;7.066;2023-07-16T04:11:57;16.30;99.90
24162;DHT22;12318;51.262;7.066;2023-07-16T04:14:23;16.40;99.90
24162;DHT22;12318;51.262;7.066;2023-07-16T04:16:48;16.30;99.90
24162;DHT22;12318;51.262;7.066;2023-07-16T04:19:14;16.30;99.90
24162;DHT22;12318;51.262;7.066;2023-07-16T04:21:40;16.40;99.90
24162;DHT22;12318;51.262;7.066;2023-07-16T04:24:06;16.30;99.90
24162;DHT22;12318;51.262;7.066;2023-07-16T04:26:32;16.40;99.90
24162;DHT22;12318;51.262;7.066;2023-07-16T04:28:58;16.40;99.90
24162;DHT22;12318;51.262;7.066;2023-07-16T04:31:24;16.40;99.90
24162;DHT22;12318;51.262;7.066;2023-07-16T04:33:50;16.40;99.90
24162;DHT22;12318;51.262;7.066;2023-07-16T04:36:16;16.50;99.90
24162;DHT22;12318;51.262;7.066;2023-07-16T04:38:42;16.40;99.90
24162;DHT22;12318;51.262;7.066;2023-07-16T04:41:07;16.50;99.90
24162;DHT22;12318;51.262;7.066;2023-07-16T04:43:33;16.50;99.90
24162;DHT22;12318;51.262;7.066;2023-07-16T04:45:59;16.50;99.90
24162;DHT22;12318;51.262;7.066;2023-07-16T04:48:26;16.50;99.90
24162;DHT22;12318;51.262;7.066;2023-07-16T04:50:52;16.70;99.90
24162;DHT22;12318;51.262;7.066;2023-07-16T04:53:18;16.80;99.90
24162;DHT22;12318;51.262;7.066;2023-07-16T04:55:44;16.80;99.90
24162;DHT22;12318;51.262;7.066;2023-07-16T04:58:13;16.70;99.90
24162;DHT22;12318;51.262;7.066;2023-07-16T05:00:39;16.80;99.90
24162;DHT22;12318;51.262;7.066;2023-07-16T05:03:05;16.90;99.90
24162;DHT22;12318;51.262;7.066;2023-07-16T05:05:31;17.00;99.90
24162;DHT22;12318;51.262;7.066;2023-07-16T05:07:57;17.00;99.90
24162;DHT22;12318;51.262;7.066;2023-07-16T05:10:23;17.10;99.90
24162;DHT22;12318;51.262;7.066;2023-07-16T05:12:49;17.10;99.90
24162;DHT22;12318;51.262;7.066;2023-07-16T05:15:15;17.20;99.90
24162;DHT22;12318;51.262;7.066;2023-07-16T05:17:41;17.20;99.90
24162;DHT22;12318;51.262;7.066;2023-07-16T05:20:07;17.20;99.90
24162;DHT22;12318;51.262;7.066;2023-07-16T05:22:35;17.40;99.90
24162;DHT22;12318;51.262;7.066;2023-07-16T05:25:01;17.40;99.90
24162;DHT22;12318;51.262;7.066;2023-07-16T05:27:27;17.50;99.90
24162;DHT22;12318;51.262;7.066;2023-07-16T05:29:53;17.50;99.90
24162;DHT22;12318;51.262;7.066;2023-07-16T05:32:19;17.50;99.90
24162;DHT22;12318;51.262;7.066;2023-07-16T05:34:45;17.50;99.90
24162;DHT22;12318;51.262;7.066;2023-07-16T05:37:11;17.50;99.90
24162;DHT22;12318;51.262;7.066;2023-07-16T05:39:37;17.60;99.90
24162;DHT22;12318;51.262;7.066;2023-07-16T05:42:04;17.60;99.90
24162;DHT22;12318;51.262;7.066;2023-07-16T05:44:30;17.60;99.90
24162;DHT22;12318;51.262;7.066;2023-07-16T05:46:55;17.70;99.90
24162;DHT22;12318;51.262;7.066;2023-07-16T05:49:21;17.80;99.90
24162;DHT22;12318;51.262;7.066;2023-07-16T05:51:47;17.90;99.90
24162;DHT22;12318;51.262;7.066;2023-07-16T05:54:14;17.80;99.90
24162;DHT22;12318;51.262;7.066;2023-07-16T05:56:39;17.90;99.90
24162;DHT22;12318;51.262;7.066;2023-07-16T05:59:05;17.80;99.90
24162;DHT22;12318;51.262;7.066;2023-07-16T06:01:31;17.80;99.90
24162;DHT22;12318;51.262;7.066;2023-07-16T06:03:57;17.80;99.90
24162;DHT22;12318;51.262;7.066;2023-07-16T06:06:23;17.90;99.90
24162;DHT22;12318;51.262;7.066;2023-07-16T06:08:48;17.80;99.90
24162;DHT22;12318;51.262;7.066;2023-07-16T06:11:14;17.90;99.90
24162;DHT22;12318;51.262;7.066;2023-07-16T06:13:40;17.90;99.90
24162;DHT22;12318;51.262;7.066;2023-07-16T06:16:06;18.00;99.90
24162;DHT22;12318;51.262;7.066;2023-07-16T06:18:32;18.00;99.90
24162;DHT22;12318;51.262;7.066;2023-07-16T06:20:58;18.20;99.90
24162;DHT22;12318;51.262;7.066;2023-07-16T06:23:23;18.20;99.90
24162;DHT22;12318;51.262;7.066;2023-07-16T06:25:54;18.20;99.90
24162;DHT22;12318;51.262;7.066;2023-07-16T06:28:20;18.10;99.90
24162;DHT22;12318;51.262;7.066;2023-07-16T06:30:46;18.10;99.90
24162;DHT22;12318;51.262;7.066;2023-07-16T06:33:12;18.20;99.90
24162;DHT22;12318;51.262;7.066;2023-07-16T06:35:37;18.30;99.90
24162;DHT22;12318;51.262;7.066;2023-07-16T06:38:03;18.30;99.90
24162;DHT22;12318;51.262;7.066;2023-07-16T06:40:30;18.30;99.90
24162;DHT22;12318;51.262;7.066;2023-07-16T06:42:56;18.30;99.90
24162;DHT22;12318;51.262;7.066;2023-07-16T06:45:22;18.30;99.90
24162;DHT22;12318;51.262;7.066;2023-07-16T06:47:49;18.20;99.90
24162;DHT22;12318;51.262;7.066;2023-07-16T06:50:14;18.30;99.90
24162;DHT22;12318;51.262;7.066;2023-07-16T06:52:40;18.30;99.90
24162;DHT22;12318;51.262;7.066;2023-07-16T06:55:06;18.30;99.90
24162;DHT22;12318;51.262;7.066;2023-07-16T06:57:32;18.20;99.90
24162;DHT22;12318;51.262;7.066;2023-07-16T06:59:58;18.30;99.90
24162;DHT22;12318;51.262;7.066;2023-07-16T07:02:23;18.50;99.90
24162;DHT22;12318;51.262;7.066;2023-07-16T07:04:50;18.70;99.90
24162;DHT22;12318;51.262;7.066;2023-07-16T07:07:16;18.80;99.90
24162;DHT22;12318;51.262;7.066;2023-07-16T07:09:42;18.70;99.90
24162;DHT22;12318;51.262;7.066;2023-07-16T07:12:08;18.80;99.90
24162;DHT22;12318;51.262;7.066;2023-07-16T07:14:34;18.70;99.90
24162;DHT22;12318;51.262;7.066;2023-07-16T07:16:59;19.00;99.90
24162;DHT22;12318;51.262;7.066;2023-07-16T07:19:25;19.10;99.90
24162;DHT22;12318;51.262;7.066;2023-07-16T07:21:51;19.30;99.90
24162;DHT22;12318;51.262;7.066;2023-07-16T07:24:17;19.20;99.90
24162;DHT22;12318;51.262;7.066;2023-07-16T07:26:43;19.30;99.90
24162;DHT22;12318;51.262;7.066;2023-07-16T07:29:09;19.20;99.90
24162;DHT22;12318;51.262;7.066;2023-07-16T07:31:34;19.20;99.90
24162;DHT22;12318;51.262;7.066;2023-07-16T07:34:00;19.20;99.90
24162;DHT22;12318;51.262;7.066;2023-07-16T07:36:26;19.30;99.90
24162;DHT22;12318;51.262;7.066;2023-07-16T07:38:52;19.30;99.90
24162;DHT22;12318;51.262;7.066;2023-07-16T07:41:18;19.30;99.90
24162;DHT22;12318;51.262;7.066;2023-07-16T07:43:43;19.40;99.90
24162;DHT22;12318;51.262;7.066;2023-07-16T07:46:09;19.30;99.90
24162;DHT22;12318;51.262;7.066;2023-07-16T07:48:35;19.40;99.90
24162;DHT22;12318;51.262;7.066;2023-07-16T07:51:01;19.60;99.90
24162;DHT22;12318;51.262;7.066;2023-07-16T07:53:27;19.60;99.90
24162;DHT22;12318;51.262;7.066;2023-07-16T07:55:54;19.60;99.90
24162;DHT22;12318;51.262;7.066;2023-07-16T07:58:20;19.50;99.90
24162;DHT22;12318;51.262;7.066;2023-07-16T08:00:45;19.60;99.90
24162;DHT22;12318;51.262;7.066;2023-07-16T08:03:11;19.60;99.90
24162;DHT22;12318;51.262;7.066;2023-07-16T08:05:37;19.70;99.90
24162;DHT22;12318;51.262;7.066;2023-07-16T08:08:03;19.80;99.90
24162;DHT22;12318;51.262;7.066;2023-07-16T08:10:29;20.00;99.90
24162;DHT22;12318;51.262;7.066;2023-07-16T08:12:55;20.10;99.90
24162;DHT22;12318;51.262;7.066;2023-07-16T08:15:21;20.20;99.90
24162;DHT22;12318;51.262;7.066;2023-07-16T08:17:48;19.80;99.90
24162;DHT22;12318;51.262;7.066;2023-07-16T08:20:14;19.80;99.90
24162;DHT22;12318;51.262;7.066;2023-07-16T08:22:40;19.90;99.90
24162;DHT22;12318;51.262;7.066;2023-07-16T08:25:06;20.10;99.90
24162;DHT22;12318;51.262;7.066;2023-07-16T08:27:33;20.20;98.80
24162;DHT22;12318;51.262;7.066;2023-07-16T08:29:59;20.30;94.50
24162;DHT22;12318;51.262;7.066;2023-07-16T08:32:25;20.20;98.10
24162;DHT22;12318;51.262;7.066;2023-07-16T08:34:51;20.40;96.40
24162;DHT22;12318;51.262;7.066;2023-07-16T08:37:17;20.40;95.90
24162;DHT22;12318;51.262;7.066;2023-07-16T08:39:43;20.40;93.40
24162;DHT22;12318;51.262;7.066;2023-07-16T08:42:09;20.60;94.30
24162;DHT22;12318;51.262;7.066;2023-07-16T08:44:39;20.60;91.40
24162;DHT22;12318;51.262;7.066;2023-07-16T08:47:06;20.80;95.00
24162;DHT22;12318;51.262;7.066;2023-07-16T08:49:34;20.90;92.10
24162;DHT22;12318;51.262;7.066;2023-07-16T08:52:01;21.00;90.40
24162;DHT22;12318;51.262;7.066;2023-07-16T08:54:27;21.00;90.40
24162;DHT22;12318;51.262;7.066;2023-07-16T08:56:53;20.90;82.20
24162;DHT22;12318;51.262;7.066;2023-07-16T08:59:20;20.90;87.10
24162;DHT22;12318;51.262;7.066;2023-07-16T09:01:47;21.10;81.00
24162;DHT22;12318;51.262;7.066;2023-07-16T09:04:14;21.20;80.20
24162;DHT22;12318;51.262;7.066;2023-07-16T09:06:41;21.10;75.40
24162;DHT22;12318;51.262;7.066;2023-07-16T09:09:07;21.10;76.50
24162;DHT22;12318;51.262;7.066;2023-07-16T09:11:33;21.10;79.40
24162;DHT22;12318;51.262;7.066;2023-07-16T09:14:01;21.30;79.20
24162;DHT22;12318;51.262;7.066;2023-07-16T09:16:32;21.00;77.70
24162;DHT22;12318;51.262;7.066;2023-07-16T09:19:06;21.00;77.50
24162;DHT22;12318;51.262;7.066;2023-07-16T09:21:32;21.60;78.60
24162;DHT22;12318;51.262;7.066;2023-07-16T09:24:00;21.50;78.90
24162;DHT22;12318;51.262;7.066;2023-07-16T09:26:26;21.60;75.10
24162;DHT22;12318;51.262;7.066;2023-07-16T09:28:52;21.70;73.50
24162;DHT22;12318;51.262;7.066;2023-07-16T09:31:17;21.40;68.50
24162;DHT22;12318;51.262;7.066;2023-07-16T09:33:46;21.20;69.70
24162;DHT22;12318;51.262;7.066;2023-07-16T09:36:12;21.30;65.70
24162;DHT22;12318;51.262;7.066;2023-07-16T09:38:39;21.10;67.40
24162;DHT22;12318;51.262;7.066;2023-07-16T09:41:06;21.50;72.50
24162;DHT22;12318;51.262;7.066;2023-07-16T09:43:33;21.70;72.80
24162;DHT22;12318;51.262;7.066;2023-07-16T09:45:59;21.90;68.20
24162;DHT22;12318;51.262;7.066;2023-07-16T09:48:24;22.20;66.60
24162;DHT22;12318;51.262;7.066;2023-07-16T09:50:52;22.30;66.10
24162;DHT22;12318;51.262;7.066;2023-07-16T09:53:19;22.70;64.40
24162;DHT22;12318;51.262;7.066;2023-07-16T09:55:46;22.60;59.90
24162;DHT22;12318;51.262;7.066;2023-07-16T09:58:14;22.60;59.70
24162;DHT22;12318;51.262;7.066;2023-07-16T10:00:42;22.30;60.10
24162;DHT22;12318;51.262;7.066;2023-07-16T10:03:08;22.10;64.10
24162;DHT22;12318;51.262;7.066;2023-07-16T10:05:37;21.80;64.40
24162;DHT22;12318;51.262;7.066;2023-07-16T10:08:03;22.20;66.20
24162;DHT22;12318;51.262;7.066;2023-07-16T10:10:39;22.30;61.50
24162;DHT22;12318;51.262;7.066;2023-07-16T10:13:07;22.00;61.10
24162;DHT22;12318;51.262;7.066;2023-07-16T10:15:33;22.20;64.30
24162;DHT22;12318;51.262;7.066;2023-07-16T10:17:59;22.30;63.50
24162;DHT22;12318;51.262;7.066;2023-07-16T10:22:57;22.40;63.90
24162;DHT22;12318;51.262;7.066;2023-07-16T10:25:26;22.50;68.40
24162;DHT22;12318;51.262;7.066;2023-07-16T10:27:54;22.10;65.20
24162;DHT22;12318;51.262;7.066;2023-07-16T10:30:20;22.10;63.40
24162;DHT22;12318;51.262;7.066;2023-07-16T10:32:46;22.10;61.50
24162;DHT22;12318;51.262;7.066;2023-07-16T10:35:12;22.50;66.10
24162;DHT22;12318;51.262;7.066;2023-07-16T10:37:39;22.40;61.00
24162;DHT22;12318;51.262;7.066;2023-07-16T10:40:10;22.60;65.90
24162;DHT22;12318;51.262;7.066;2023-07-16T10:42:37;22.70;65.80
24162;DHT22;12318;51.262;7.066;2023-07-16T10:45:07;22.60;65.50
24162;DHT22;12318;51.262;7.066;2023-07-16T10:47:35;22.50;69.70
24162;DHT22;12318;51.262;7.066;2023-07-16T10:50:05;22.50;66.90
24162;DHT22;12318;51.262;7.066;2023-07-16T10:52:31;22.50;64.50
24162;DHT22;12318;51.262;7.066;2023-07-16T10:54:56;22.00;66.10
24162;DHT22;12318;51.262;7.066;2023-07-16T10:57:25;21.80;62.70
24162;DHT22;12318;51.262;7.066;2023-07-16T10:59:53;21.80;67.10
24162;DHT22;12318;51.262;7.066;2023-07-16T11:02:20;22.00;71.40
24162;DHT22;12318;51.262;7.066;2023-07-16T11:04:47;22.30;75.60
24162;DHT22;12318;51.262;7.066;2023-07-16T11:07:14;22.70;70.00
24162;DHT22;12318;51.262;7.066;2023-07-16T11:09:42;22.80;65.60
24162;DHT22;12318;51.262;7.066;2023-07-16T11:12:12;23.10;62.40
24162;DHT22;12318;51.262;7.066;2023-07-16T11:14:42;23.00;57.70
24162;DHT22;12318;51.262;7.066;2023-07-16T11:17:08;22.80;57.10
24162;DHT22;12318;51.262;7.066;2023-07-16T11:19:37;22.90;58.50
24162;DHT22;12318;51.262;7.066;2023-07-16T11:22:05;22.80;59.60
24162;DHT22;12318;51.262;7.066;2023-07-16T11:24:43;22.70;59.50
24162;DHT22;12318;51.262;7.066;2023-07-16T11:27:26;23.00;56.50
24162;DHT22;12318;51.262;7.066;2023-07-16T11:29:56;23.10;55.70
24162;DHT22;12318;51.262;7.066;2023-07-16T11:32:36;22.90;54.00
24162;DHT22;12318;51.262;7.066;2023-07-16T11:35:03;23.30;55.00
24162;DHT22;12318;51.262;7.066;2023-07-16T11:37:31;23.40;55.70
24162;DHT22;12318;51.262;7.066;2023-07-16T11:39:58;23.60;52.80
24162;DHT22;12318;51.262;7.066;2023-07-16T11:42:28;23.80;54.50
24162;DHT22;12318;51.262;7.066;2023-07-16T11:44:54;23.60;54.10
24162;DHT22;12318;51.262;7.066;2023-07-16T11:47:21;23.70;55.60
24162;DHT22;12318;51.262;7.066;2023-07-16T11:49:48;23.70;53.30
24162;DHT22;12318;51.262;7.066;2023-07-16T11:52:14;23.50;53.80
24162;DHT22;12318;51.262;7.066;2023-07-16T11:54:39;23.30;50.50
24162;DHT22;12318;51.262;7.066;2023-07-16T11:57:06;23.10;56.20
24162;DHT22;12318;51.262;7.066;2023-07-16T11:59:32;23.20;57.80
24162;DHT22;12318;51.262;7.066;2023-07-16T12:01:58;23.30;56.20
24162;DHT22;12318;51.262;7.066;2023-07-16T12:04:25;23.00;55.50
24162;DHT22;12318;51.262;7.066;2023-07-16T12:06:50;23.00;54.90
24162;DHT22;12318;51.262;7.066;2023-07-16T12:09:16;22.90;55.10
24162;DHT22;12318;51.262;7.066;2023-07-16T12:11:43;23.00;55.00
24162;DHT22;12318;51.262;7.066;2023-07-16T12:14:09;22.80;54.00
24162;DHT22;12318;51.262;7.066;2023-07-16T12:16:35;22.70;55.50
24162;DHT22;12318;51.262;7.066;2023-07-16T12:19:01;22.70;56.70
24162;DHT22;12318;51.262;7.066;2023-07-16T12:21:27;22.80;56.50
24162;DHT22;12318;51.262;7.066;2023-07-16T12:23:53;22.80;55.20
24162;DHT22;12318;51.262;7.066;2023-07-16T12:26:19;22.90;57.00
24162;DHT22;12318;51.262;7.066;2023-07-16T12:28:45;22.50;55.80
24162;DHT22;12318;51.262;7.066;2023-07-16T12:31:14;22.50;55.70
24162;DHT22;12318;51.262;7.066;2023-07-16T12:33:40;22.50;54.30
24162;DHT22;12318;51.262;7.066;2023-07-16T12:36:06;22.30;55.10
24162;DHT22;12318;51.262;7.066;2023-07-16T12:38:32;22.50;57.20
24162;DHT22;12318;51.262;7.066;2023-07-16T12:40:58;22.50;57.70
24162;DHT22;12318;51.262;7.066;2023-07-16T12:43:24;22.40;58.50
24162;DHT22;12318;51.262;7.066;2023-07-16T12:45:49;22.60;59.30
24162;DHT22;12318;51.262;7.066;2023-07-16T12:48:15;22.80;58.50
24162;DHT22;12318;51.262;7.066;2023-07-16T12:50:41;22.90;61.20
24162;DHT22;12318;51.262;7.066;2023-07-16T12:53:07;22.90;56.50
24162;DHT22;12318;51.262;7.066;2023-07-16T12:55:32;23.00;57.40
24162;DHT22;12318;51.262;7.066;2023-07-16T12:57:59;22.90;52.90
24162;DHT22;12318;51.262;7.066;2023-07-16T13:00:25;23.00;53.50
24162;DHT22;12318;51.262;7.066;2023-07-16T13:02:51;22.90;56.30
24162;DHT22;12318;51.262;7.066;2023-07-16T13:05:16;22.90;53.40
24162;DHT22;12318;51.262;7.066;2023-07-16T13:07:42;23.00;54.10
24162;DHT22;12318;51.262;7.066;2023-07-16T13:10:09;23.30;55.60
24162;DHT22;12318;51.262;7.066;2023-07-16T13:12:35;23.50;53.60
24162;DHT22;12318;51.262;7.066;2023-07-16T13:15:00;23.40;50.30
24162;DHT22;12318;51.262;7.066;2023-07-16T13:17:26;23.20;46.90
24162;DHT22;12318;51.262;7.066;2023-07-16T13:19:52;23.00;48.10
24162;DHT22;12318;51.262;7.066;2023-07-16T13:22:18;23.20;52.10
24162;DHT22;12318;51.262;7.066;2023-07-16T13:24:43;23.40;46.40
24162;DHT22;12318;51.262;7.066;2023-07-16T13:27:22;23.50;46.60
24162;DHT22;12318;51.262;7.066;2023-07-16T13:29:48;23.80;50.20
24162;DHT22;12318;51.262;7.066;2023-07-16T13:32:14;23.70;48.90
24162;DHT22;12318;51.262;7.066;2023-07-16T13:34:40;23.90;50.70
24162;DHT22;12318;51.262;7.066;2023-07-16T13:37:06;23.80;49.40
24162;DHT22;12318;51.262;7.066;2023-07-16T13:39:31;23.70;49.40
24162;DHT22;12318;51.262;7.066;2023-07-16T13:41:57;23.90;48.20
24162;DHT22;12318;51.262;7.066;2023-07-16T13:44:23;24.00;45.60
24162;DHT22;12318;51.262;7.066;2023-07-16T13:46:48;23.80;46.50
24162;DHT22;12318;51.262;7.066;2023-07-16T13:49:14;23.80;47.20
24162;DHT22;12318;51.262;7.066;2023-07-16T13:51:40;23.80;45.20
24162;DHT22;12318;51.262;7.066;2023-07-16T13:54:06;23.20;47.00
24162;DHT22;12318;51.262;7.066;2023-07-16T13:56:31;23.10;44.90
24162;DHT22;12318;51.262;7.066;2023-07-16T13:58:57;23.10;44.60
24162;DHT22;12318;51.262;7.066;2023-07-16T14:01:24;23.30;49.10
24162;DHT22;12318;51.262;7.066;2023-07-16T14:03:49;23.30;45.10
24162;DHT22;12318;51.262;7.066;2023-07-16T14:06:15;23.20;47.30
24162;DHT22;12318;51.262;7.066;2023-07-16T14:08:41;23.10;45.70
24162;DHT22;12318;51.262;7.066;2023-07-16T14:11:07;23.00;45.20
24162;DHT22;12318;51.262;7.066;2023-07-16T14:13:33;23.40;50.50
24162;DHT22;12318;51.262;7.066;2023-07-16T14:15:58;23.60;47.50
24162;DHT22;12318;51.262;7.066;2023-07-16T14:18:24;23.30;45.90
24162;DHT22;12318;51.262;7.066;2023-07-16T14:20:50;23.30;45.70
24162;DHT22;12318;51.262;7.066;2023-07-16T14:23:16;23.30;48.20
24162;DHT22;12318;51.262;7.066;2023-07-16T14:25:41;23.30;44.90
24162;DHT22;12318;51.262;7.066;2023-07-16T14:28:07;23.20;49.80
24162;DHT22;12318;51.262;7.066;2023-07-16T14:30:33;23.10;50.20
24162;DHT22;12318;51.262;7.066;2023-07-16T14:32:59;23.00;48.70
24162;DHT22;12318;51.262;7.066;2023-07-16T14:35:26;23.00;50.50
24162;DHT22;12318;51.262;7.066;2023-07-16T14:37:52;22.80;46.20
24162;DHT22;12318;51.262;7.066;2023-07-16T14:40:18;23.10;50.80
24162;DHT22;12318;51.262;7.066;2023-07-16T14:42:45;23.20;48.40
24162;DHT22;12318;51.262;7.066;2023-07-16T14:45:10;23.30;49.00
24162;DHT22;12318;51.262;7.066;2023-07-16T14:47:36;23.60;49.60
24162;DHT22;12318;51.262;7.066;2023-07-16T14:50:02;23.60;52.10
24162;DHT22;12318;51.262;7.066;2023-07-16T14:52:28;23.40;51.00
24162;DHT22;12318;51.262;7.066;2023-07-16T14:54:54;23.50;51.10
24162;DHT22;12318;51.262;7.066;2023-07-16T14:57:19;23.30;48.50
24162;DHT22;12318;51.262;7.066;2023-07-16T14:59:45;23.20;48.20
24162;DHT22;12318;51.262;7.066;2023-07-16T15:02:12;23.10;52.30
24162;DHT22;12318;51.262;7.066;2023-07-16T15:04:38;23.10;49.90
24162;DHT22;12318;51.262;7.066;2023-07-16T15:07:04;23.30;50.80
24162;DHT22;12318;51.262;7.066;2023-07-16T15:09:30;23.40;52.80
24162;DHT22;12318;51.262;7.066;2023-07-16T15:11:56;23.40;48.70
24162;DHT22;12318;51.262;7.066;2023-07-16T15:14:22;23.40;51.40
24162;DHT22;12318;51.262;7.066;2023-07-16T15:16:48;23.10;48.20
24162;DHT22;12318;51.262;7.066;2023-07-16T15:19:13;23.00;52.70
24162;DHT22;12318;51.262;7.066;2023-07-16T15:21:39;23.10;50.70
24162;DHT22;12318;51.262;7.066;2023-07-16T15:24:06;23.10;51.50
24162;DHT22;12318;51.262;7.066;2023-07-16T15:26:31;23.10;49.70
24162;DHT22;12318;51.262;7.066;2023-07-16T15:28:58;22.90;48.30
24162;DHT22;12318;51.262;7.066;2023-07-16T15:31:23;22.90;48.90
24162;DHT22;12318;51.262;7.066;2023-07-16T15:33:55;23.20;51.70
24162;DHT22;12318;51.262;7.066;2023-07-16T15:36:21;23.20;50.80